Tiempo atmosférico en la estación meteorológica de Barcelona Aeropuerto, Barcelona (4 m.)



Fecha
DESCASC
Temp. máxima en grados centígrados (hora)
DESCASC
Temp. mínima en grados centígrados (hora)
DESCASC
Temp. media en grados centígrados
DESCASC
Racha de viento máxima en m/sg (hora)
DESCASC
Velocidad máxima media en intervalos de 10 minutos(hora)
DESCASC
Precipitaciones diarias en mm
DESCASC
Precipitaciones de 00:00 a 06:00 en mm
DESCASC
Precipitaciones de 06:00 a 12:00 en mm
DESCASC
Precipitaciones de 12:00 a 18:00 en mm
DESCASC
Precipitaciones de 18:00 a 24:00 en mm
DESCASC
18-02-2018 15.2 (13:30) 7 (07:40) 11.1 9.17 (09:50) 6.67 (09:50) 0 0 0 0 0
17-02-2018 15.7 (12:50) 8.6 (07:20) 12.2 10.83 (12:40) 8.33 (13:30) 0.1 0 0 0 0.1
16-02-2018 16.1 (12:50) 10.1 (00:00) 13.1 8.89 (18:00) 6.67 (18:00) 0 0 0 0 0
15-02-2018 17 (12:40) 6.7 (00:00) 11.8 6.67 (03:20) 5.56 (14:00) 0 0 0 0 0
14-02-2018 11.8 (16:20) 4.1 (00:00) 8 7.78 (10:50) 5.83 (10:50) 0 0 0 0 0
13-02-2018 11.8 (15:20) 1.5 (00:00) 6.7 15.28 (15:40) 10.56 (15:40) 0 0 0 0 0
12-02-2018 12.6 (01:20) 3.2 (00:00) 7.9 9.17 (09:40) 6.94 (12:20) 13 0 1.9 2.3 8.8
11-02-2018 14.8 (16:00) 2.4 (00:00) 8.6 11.67 (15:20) 8.61 (15:10) 0 0 0 0 0
10-02-2018 13.5 (16:10) 2.8 (00:00) 8.1 8.89 (04:10) 6.11 (04:00) 0 0 0 0 0
09-02-2018 10.3 (14:50) 0.6 (00:00) 5.5 8.89 (15:40) 6.67 (15:50) 0 0 0 0 0
08-02-2018 8.9 (13:10) 2.4 (00:00) 5.6 9.17 (08:30) 7.5 (13:20) 0.3 0 0 0 0.3
07-02-2018 11.7 (16:10) 3.6 (00:00) 7.6 8.33 (15:10) 6.11 (15:20) 0 0 0 0 0
06-02-2018 11.2 (14:40) 7.4 (00:00) 9.3 8.33 (12:40) 6.67 (12:40) 5.9 1.1 4.8 0 0
05-02-2018 10.4 (21:30) 6.4 (00:00) 8.4 12.78 (04:40) 8.89 (04:40) 38.6 13.5 13 4.2 7.9
04-02-2018 10.6 (11:10) 6.6 (00:00) 8.6 21.11 (23:20) 13.06 (15:20) 37 0 0.5 17.1 19.4
03-02-2018 12.9 (13:00) 3.6 (00:00) 8.2 15.28 (14:20) 11.39 (14:30) 0 0 0 0 0
02-02-2018 12.2 (15:50) 5 (00:00) 8.6 8.33 (12:20) 6.39 (03:20) 1.9 1.9 0 0 0
01-02-2018 11.5 (14:20) 5.8 (00:00) 8.7 12.5 (20:30) 10 (20:40) 1.5 0 0 0.6 0.9
31-01-2018 14.7 (13:20) 4.7 (00:00) 9.7 11.39 (12:40) 8.61 (12:40) 0 0 0 0 0
30-01-2018 15.2 (14:50) 6.1 (00:00) 10.6 8.89 (15:40) 7.22 (16:40) 0 0 0 0 0
29-01-2018 16.5 (13:10) 6.7 (00:00) 11.6 8.33 (05:10) 6.39 (16:10) 0 0 0 0 0
28-01-2018 15.7 (13:30) 8.2 (00:00) 11.9 7.22 (00:20) 5.83 (13:30) 0 0 0 0 0
27-01-2018 13.2 (15:40) 6.2 (00:00) 9.7 10.83 (19:20) 8.33 (19:20) 0 0 0 0 0
26-01-2018 13.9 (05:10) 6.9 (00:00) 10.4 21.67 (20:40) 8.06 (04:50) 35.5 2.2 16.7 16.6 0
25-01-2018 14.7 (13:40) 9.8 (00:00) 12.3 9.72 (13:40) 6.11 (13:20) 0 0 0 0 0
24-01-2018 16.9 (12:20) 7.4 (00:00) 12.1 9.17 (16:40) 6.11 (08:00) 0 0 0 0 0
23-01-2018 18.2 (14:00) 9.4 (00:00) 13.8 7.78 (10:30) 5.56 (07:20) 0 0 0 0 0
22-01-2018 21.5 (15:50) 12.4 (00:00) 16.9 12.5 (02:20) 9.44 (02:20) 0 0 0 0 0

Gráficas

Temp. máximas Temp. mínimas Temp. medias Precipitaciones Rachas de viento máximas Velocidades máximas media en intervalos de 10 minutos

Datos horarios

Fecha y hora oficial Temperatura (ºC) Velocidad del viento (km/h) Dirección del viento Racha (km/h) Dirección de racha Precipitación (mm) Presión (hPa) Tendencia (hPa) Humedad (%)
2018-02-20 23:00:00 9.9 12 Norte 15 Norte 0 1009.1 0.2 88
2018-02-20 22:00:00 9.9 2 Noroeste 9 Norte 0 1009 0.4 89
2018-02-20 21:00:00 11.6 3 Nordeste 13 Este 0 1009.1 0.8 86
2018-02-20 20:00:00 12.4 11 Este 17 Este 0 1008.9 0.8 85
2018-02-20 19:00:00 13.1 9 Este 15 Este 0 1008.6 0.2 81
2018-02-20 18:00:00 14.9 8 Sudoeste 13 Sudoeste 0 1008.3 -0.5 66
2018-02-20 17:00:00 14.9 9 Sudoeste 17 Sudoeste 0 1008.1 -1.5 69
2018-02-20 16:00:00 14.4 13 Sudoeste 17 Sudoeste 0 1008.4 -1.7 71
2018-02-20 15:00:00 15.1 13 Sudoeste 21 Sudoeste 0 1008.8 -1.8 66
2018-02-20 14:00:00 13.8 16 Sudoeste 21 Sudoeste 0 1009.6 -1.7 73
2018-02-20 13:00:00 14.1 16 Sudoeste 21 Sudoeste 0 1010.1 -1.2 70
2018-02-20 12:00:00 15.2 7 Sudoeste 22 Norte 0 1010.6 -0.8 64
2018-02-20 11:00:00 13.2 10 Norte 17 Noroeste 0 1011.3 -0.1 70
2018-02-20 10:00:00 12.5 13 Norte 17 Noroeste 0 1011.3 0.1 73
2018-02-20 09:00:00 11.2 14 Norte 18 Norte 0 1011.4 -0.1 80
2018-02-20 08:00:00 10.8 7 Nordeste 17 Norte 0 1011.4 -0.3 83
2018-02-20 07:00:00 10.6 6 Norte 18 Norte 0 1011.2 -0.9 85
2018-02-20 06:00:00 10.9 13 Norte 18 Norte 0 1011.5 -1.3 84
2018-02-20 05:00:00 10.9 12 Norte 18 Norte 0 1011.7 -1.8 84
2018-02-20 04:00:00 11.4 5 Norte 15 Oeste 0 1012.1 -2 82
2018-02-20 03:00:00 11.3 12 Oeste 13 Oeste 0 1012.8 -1.4 83
2018-02-20 02:00:00 11.4 6 Noroeste 11 Norte 0 1013.5 -1.2 83
2018-02-20 01:00:00 11.4 8 Norte 13 Norte 0 1014.1 -0.9 83
2018-02-20 00:00:00 11.4 7 Norte 9 Noroeste 0 1014.2 -1 83
2018-02-19 23:00:00 11.4 6 Norte 8 Norte 0 1014.7 -0.7 83
2018-02-19 22:00:00 11.4 5 Oeste 11 Sudoeste 0 1015 -0.6 82
2018-02-19 21:00:00 11.6 8 Sudoeste 11 Sur 0 1015.2 -0.2 81
2018-02-19 20:00:00 11.7 8 Sudoeste 11 Sudoeste 0 1015.4 0.1 79
2018-02-19 19:00:00 12 7 Sur 11 Sur 0 1015.6 0.1 77
2018-02-19 18:00:00 12.3 7 Sur 15 Sur 0 1015.4 -0.6 74
2018-02-19 17:00:00 12.7 10 Sur 18 Sur 0 1015.3 -1.2 72
2018-02-19 16:00:00 13.2 11 Sur 63 Sudeste 0 1015.5 -1.6 69
2018-02-19 15:00:00 12.5 12 Sudeste 22 Sudeste 0 1016 -1.5 72
2018-02-19 14:00:00 12.5 16 Este 26 Este 0 1016.5 -1 73
2018-02-19 13:00:00 12.3 17 Este 30 Sudeste 0 1017.1 -0.4 76
2018-02-19 12:00:00 13.3 14 Este 18 Este 0 1017.5 0 72
2018-02-19 11:00:00 11.7 14 Norte 22 Norte 0 1017.5 0.2 66
2018-02-19 10:00:00 9.9 17 Norte 22 Norte 0 1017.5 0.6 72
2018-02-19 09:00:00 7.8 14 Norte 22 Norte 0 1017.5 0.9 78
2018-02-19 08:00:00 6.9 14 Norte 26 Norte 0 1017.3 0.6 80
2018-02-19 07:00:00 6.9 20 Norte 26 Norte 0 1016.9 0.2 80
2018-02-19 06:00:00 7 14 Norte 18 Norte 0 1016.6 -0.4 80
2018-02-19 05:00:00 7.8 12 Norte 22 Norte 0 1016.7 -0.8 77
2018-02-19 04:00:00 8.2 15 Norte 22 Norte 0 1016.7 -1.3 76
2018-02-19 03:00:00 8.2 15 Norte 22 Norte 0 1017 -1.1 76
2018-02-19 02:00:00 8.7 12 Norte 24 Nordeste 0 1017.5 -0.9 74
2018-02-19 01:00:00 9.7 12 Norte 15 Norte 0 1018 -0.6 71
2018-02-19 00:00:00 10.4 10 Norte 17 Nordeste 0 1018.1 -0.8 69
2018-02-18 23:00:00 11.1 4 Noroeste 11 Oeste 0 1018.4 -0.7 71
2018-02-18 22:00:00 11.5 5 Noroeste 8 Noroeste 0 1018.6 -0.3 73
2018-02-18 21:00:00 12 4 Oeste 11 Oeste 0 1018.9 0.3 67
2018-02-18 20:00:00 11.9 6 Oeste 13 Sudoeste 0 1019.1 0.4 69
2018-02-18 19:00:00 12.3 10 Sudoeste 17 Sudoeste 0 1018.9 0 68
2018-02-18 18:00:00 12.8 13 Sudoeste 22 Sudoeste 0 1018.6 -0.8 65
2018-02-18 17:00:00 13.5 17 Sudoeste 24 Sudoeste 0 1018.7 -1.4 68
2018-02-18 16:00:00 13.5 17 Sudoeste 24 Sudoeste 0 1018.9 -1.9 68
2018-02-18 15:00:00 14.1 14 Sudoeste 21 Sudoeste 0 1019.4 -2.2 63
2018-02-18 14:00:00 14.1 12 Sur 17 Sudeste 0 1020.1 -1.8 62
2018-02-18 13:00:00 14.1 5 Nordeste 21 Norte 0 1020.8 -1.1 60
2018-02-18 12:00:00 11.9 17 Norte 30 Norte 0 1021.6 -0.4 61
2018-02-18 11:00:00 11.3 21 Norte 32 Norte 0 1021.9 0.2 62
2018-02-18 10:00:00 9.2 22 Norte 33 Norte 0 1021.9 0.4 68
2018-02-18 09:00:00 8 21 Norte 30 Norte 0 1022 0.5 72
2018-02-18 08:00:00 7.2 24 Norte 30 Norte 0 1021.7 0.5 76
2018-02-18 07:00:00 7.3 17 Norte 24 Norte 0 1021.5 0.2 75
2018-02-18 06:00:00 8.1 10 Norte 22 Norte 0 1021.5 0 74
2018-02-18 05:00:00 8.8 15 Norte 24 Norte 0 1021.2 -0.7 71
2018-02-18 04:00:00 9.7 9 Norte 15 Norte 0 1021.3 -1.1 74
2018-02-18 03:00:00 10.7 12 Norte 15 Nordeste 0 1021.5 -0.9 80
2018-02-18 02:00:00 11.9 6 Sudoeste 22 Sudoeste 0 1021.9 -0.2 82
2018-02-18 01:00:00 12.8 19 Sudoeste 26 Sudoeste 0 1022.4 0.6 88
2018-02-18 00:00:00 12.2 13 Sur 21 Sudoeste 0.1 1022.4 0.6 87
2018-02-17 23:00:00 12.7 12 Sur 22 Sudoeste 0 1022.1 0.7 87
2018-02-17 22:00:00 11.7 10 Oeste 18 Sudoeste 0 1021.8 0.5 92
2018-02-17 21:00:00 12.8 12 Sudoeste 15 Sudoeste 0 1021.8 1.2 82
2018-02-17 20:00:00 13.4 8 Sur 15 Sudeste 0 1021.4 1.1 75
2018-02-17 19:00:00 13.6 8 Sudeste 17 Sudeste 0 1021.3 1.2 81
2018-02-17 18:00:00 13.8 14 Sudeste 21 Sudeste 0 1020.6 0.8 83
2018-02-17 17:00:00 13.8 10 Sudeste 17 Este 0 1020.3 0.5 87
2018-02-17 16:00:00 13.9 12 Este 30 Este 0 1020.1 0.1 83
2018-02-17 15:00:00 13.8 22 Este 33 Este 0 1019.8 -0.4 84
2018-02-17 14:00:00 13.8 26 Este 35 Este 0 1019.8 -0.1 83
2018-02-17 13:00:00 14.9 23 Este 39 Nordeste 0 1020 0.5 76
2018-02-17 12:00:00 14.5 11 Este 26 Norte 0 1020.2 0.9 76
2018-02-17 11:00:00 13.3 7 Noroeste 28 Oeste 0 1019.9 0.8 87
2018-02-17 10:00:00 11 5 Norte 11 Norte 0 1019.5 0.6 94
2018-02-17 09:00:00 9.4 7 Norte 9 Norte 0 1019.3 0.6 95
2018-02-17 08:00:00 8.7 3 Norte 11 Norte 0 1019.1 0.1 95
2018-02-17 07:00:00 8.7 5 Norte 11 Norte 0 1018.9 -0.4 95
2018-02-17 06:00:00 9.8 8 Oeste 17 Sudoeste 0 1018.7 -1.2 95
2018-02-17 05:00:00 10.8 14 Oeste 21 Oeste 0 1019 -1.3 95
2018-02-17 04:00:00 11 13 Oeste 26 Oeste 0 1019.3 -1.6 95
2018-02-17 03:00:00 11.3 17 Oeste 26 Sudoeste 0 1019.9 -1.1 95
2018-02-17 02:00:00 11.1 11 Oeste 22 Oeste 0 1020.3 -0.6 95
2018-02-17 01:00:00 11.4 15 Sudoeste 22 Sudoeste 0 1020.9 0 95
2018-02-17 00:00:00 11.6 14 Oeste 24 Oeste 0 1021 0.2 95
2018-02-16 23:00:00 11.9 15 Sudoeste 24 Sudoeste 0 1020.9 0.1 95
2018-02-16 22:00:00 12 17 Sudoeste 28 Sudoeste 0 1020.9 0 95
2018-02-16 21:00:00 12.4 15 Oeste 22 Oeste 0 1020.8 0 94
2018-02-16 20:00:00 12.8 15 Oeste 21 Oeste 0 1020.8 -0.2 92
2018-02-16 19:00:00 13.3 14 Sudoeste 32 Sudoeste 0 1020.9 -0.3 90
2018-02-16 18:00:00 14 24 Sudoeste 32 Sudoeste 0 1020.8 -0.7 89
2018-02-16 17:00:00 14.8 21 Sudoeste 30 Sudoeste 0 1021 -1.1 86
2018-02-16 16:00:00 15.3 22 Sudoeste 30 Sudoeste 0 1021.2 -1.7 85
2018-02-16 15:00:00 15.1 21 Sudoeste 28 Sudoeste 0 1021.5 -2.2 85
2018-02-16 14:00:00 16 19 Sudoeste 24 Sudoeste 0 1022.1 -1.7 78
2018-02-16 13:00:00 16 10 Sudoeste 17 Sudoeste 0 1022.9 -0.7 74
2018-02-16 12:00:00 14.9 10 Oeste 18 Sudoeste 0 1023.7 0.3 81
2018-02-16 11:00:00 14 0 Calma 11 Norte 0 1023.8 0.9 77
2018-02-16 10:00:00 12.6 8 Norte 11 Norte 0 1023.6 1.2 77
2018-02-16 09:00:00 11.5 11 Norte -- -- -- 1023.4 0.7 80
2018-02-16 08:00:00 10.8 11 Norte 15 Norte 0 1022.9 0.2 83
2018-02-16 07:00:00 10.8 13 Norte 18 Norte 0 1022.4 -0.6 83
2018-02-16 06:00:00 11 13 Norte 17 Norte 0 1022.7 -0.7 83
2018-02-16 05:00:00 10.6 10 Norte 15 Norte 0 1022.7 -0.9 85
2018-02-16 04:00:00 10.7 5 Norte 18 Norte 0 1023 -0.8 85
2018-02-16 03:00:00 10.8 7 Norte 13 Norte 0 1023.4 -0.8 85
2018-02-16 02:00:00 11.1 5 Norte 9 Norte 0 1023.6 -0.4 84
2018-02-16 01:00:00 10.7 3 Este 8 Norte 0 1023.8 -0.1 89
2018-02-16 00:00:00 10.1 3 Norte 8 Noroeste 0 1024.2 0.2 91
2018-02-15 23:00:00 10.9 0 Calma 9 Norte 0 1024 0.4 90
2018-02-15 22:00:00 11.9 7 Norte 11 Norte 0 1023.9 0.6 89
2018-02-15 21:00:00 12.2 2 Este -- -- 0 1024 1.2 90
2018-02-15 20:00:00 12.8 0 Calma 15 Sudoeste 0 1023.6 1.4 89
2018-02-15 19:00:00 13.5 8 Sudoeste 18 Sudoeste 0 1023.3 1.2 86
2018-02-15 18:00:00 14.6 13 Sudoeste 21 Sudoeste 0 1022.8 0.8 79
2018-02-15 17:00:00 15.3 12 Sudoeste 18 Sudoeste 0 1022.2 -0.1 74
2018-02-15 16:00:00 15.3 13 Sudoeste 22 Sur 0 1022.1 -0.2 73
2018-02-15 15:00:00 15.5 14 Sur 22 Sur 0 1022 -0.6 72
2018-02-15 14:00:00 15.1 20 Sudoeste 24 Sudoeste 0 1022.3 0.1 72
2018-02-15 13:00:00 15.3 17 Sudoeste 21 Sudoeste 0 1022.3 0.4 62
2018-02-15 12:00:00 15.5 10 Norte 18 Norte 0 1022.6 1.1 61
2018-02-15 11:00:00 13.4 16 Norte 24 Norte 0 1022.2 1.6 66
2018-02-15 10:00:00 11.7 13 Norte 17 Norte 0 1021.9 2.2 70
2018-02-15 09:00:00 8.2 13 Norte 24 Norte 0 1021.5 2.2 78
2018-02-15 08:00:00 6.9 17 Norte 22 Nordeste 0 1020.6 1.8 80
2018-02-15 07:00:00 7.2 17 Norte 24 Norte 0 1019.7 0.9 79
2018-02-15 06:00:00 7 19 Norte 24 Norte 0 1019.3 0.6 82
2018-02-15 05:00:00 6.9 18 Norte 24 Norte 0 1018.8 0.4 85
2018-02-15 04:00:00 7.8 14 Norte 24 Norte 0 1018.8 0.6 84
2018-02-15 03:00:00 7.3 16 Norte 21 Norte 0 1018.7 0.9 88
2018-02-15 02:00:00 7.2 12 Norte 15 Norte 0 1018.4 0.9 88
2018-02-15 01:00:00 7.3 11 Norte 15 Norte 0 1018.2 0.6 88
2018-02-15 00:00:00 7.2 4 Norte 13 Norte 0 1017.8 0.4 87
2018-02-14 23:00:00 7.9 10 Norte 15 Norte 0 1017.5 0.1 85
2018-02-14 22:00:00 9.2 5 Norte 11 Oeste 0 1017.6 0.6 83
2018-02-14 21:00:00 9.2 8 Oeste 11 Oeste 0 1017.4 0.5 82
2018-02-14 20:00:00 10 6 Oeste 17 Oeste 0 1017.4 0.6 80
2018-02-14 19:00:00 10.6 11 Oeste 18 Sudoeste 0 1017 0.3 76
2018-02-14 18:00:00 11 13 Oeste 21 Oeste 0 1016.9 0.1 70
2018-02-14 17:00:00 11.4 13 Sudoeste 17 Sudoeste 0 1016.8 -0.3 63
2018-02-14 16:00:00 11.6 4 Oeste 9 Norte 0 1016.7 -0.6 60
2018-02-14 15:00:00 10.4 8 Norte 17 Norte 0 1016.8 -1.5 62
2018-02-14 14:00:00 9.7 12 Norte 21 Norte 0 1017.1 -1 61
2018-02-14 13:00:00 9.2 14 Norte 22 Norte 0 1017.3 -0.2 62
2018-02-14 12:00:00 8.1 15 Norte 21 Norte 0 1018.3 1.4 62
2018-02-14 11:00:00 6.2 19 Norte 28 Norte 0 1018.1 1.9 68
2018-02-14 10:00:00 5 19 Norte 26 Norte 0 1017.5 1.8 74
2018-02-14 09:00:00 4.5 16 Norte 22 Norte 0 1016.9 1.5 75
2018-02-14 08:00:00 4.2 16 Norte 22 Norte 0 1016.2 1.2 76
2018-02-14 07:00:00 5.5 14 Norte 26 Norte 0 1015.7 1.1 72
2018-02-14 06:00:00 4.4 17 Norte 24 Norte 0 1015.4 0.9 75
2018-02-14 05:00:00 4.1 4 Norte 11 Norte 0 1015 0.7 77
2018-02-14 04:00:00 5.7 8 Nordeste 11 Nordeste 0 1014.6 0.2 70
2018-02-14 03:00:00 6.8 10 Oeste 26 Noroeste 0 1014.5 0 66
2018-02-14 02:00:00 6.7 12 Oeste 18 Oeste 0 1014.3 0 67
2018-02-14 01:00:00 7.3 9 Oeste 17 Oeste 0 1014.4 0.1 64
2018-02-14 00:00:00 7.5 5 Oeste 18 Oeste 0 1014.5 0.3 61
2018-02-13 23:00:00 7.2 17 Oeste 26 Oeste 0 1014.3 0.4 65
2018-02-13 22:00:00 6.7 16 Oeste 21 Oeste 0 1014.3 0.6 67
2018-02-13 21:00:00 7.5 11 Sudoeste 21 Oeste 0 1014.2 1.1 62
2018-02-13 20:00:00 7.6 13 Oeste 24 Oeste 0 1013.9 0.9 62
2018-02-13 19:00:00 8.2 11 Sudoeste 26 Oeste 0 1013.7 0.5 59
2018-02-13 18:00:00 8.9 18 Oeste 50 Oeste 0 1013.1 -0.5 56
2018-02-13 17:00:00 9.7 32 Oeste 45 Oeste 0 1013 -1.8 52
2018-02-13 16:00:00 11.1 37 Oeste 55 Oeste 0 1013.2 -2.6 43
2018-02-13 15:00:00 10.9 29 Oeste 45 Oeste 0 1013.6 -4 54
2018-02-13 14:00:00 10 31 Oeste 45 Oeste 0 1014.8 -3.4 54
2018-02-13 13:00:00 9.1 31 Oeste 45 Oeste 0 1015.8 -2.9 54
2018-02-13 12:00:00 7.9 6 Oeste 32 Oeste 0 1017.6 -1.1 59
2018-02-13 11:00:00 5.4 17 Norte 26 Norte 0 1018.2 -0.7 67
2018-02-13 10:00:00 3.9 22 Norte 28 Norte 0 1018.7 -0.1 71
2018-02-13 09:00:00 2.4 22 Norte 32 Norte 0 1018.7 -0.4 79
2018-02-13 08:00:00 1.6 22 Norte 33 Norte 0 1018.9 -0.2 84
2018-02-13 07:00:00 1.8 23 Norte 32 Norte 0 1018.8 -0.6 84
2018-02-13 06:00:00 2.1 17 Norte 22 Norte 0 1019.1 -0.7 85
2018-02-13 05:00:00 2.3 12 Norte 18 Norte 0 1019.1 -0.6 89
2018-02-13 04:00:00 2.5 12 Norte 15 Norte 0 1019.4 0 91
2018-02-13 03:00:00 2.7 16 Norte 21 Norte 0 1019.8 0.4 92
2018-02-13 02:00:00 3 15 Norte 21 Norte 0 1019.7 0.3 92
2018-02-13 01:00:00 3.8 12 Norte 15 Norte 0 1019.4 1.3 91
2018-02-13 00:00:00 4.3 12 Norte 22 Este 0 1019.4 0.3 88
2018-02-12 23:00:00 4.5 17 Este 28 Este 0 1019.4 1.6 89
2018-02-12 22:00:00 3.6 21 Sudeste 30 Sudeste 3.1 1018.1 0.9 94
2018-02-12 21:00:00 3.3 19 Norte 30 Nordeste 4.8 1019.1 2.6 93
2018-02-12 20:00:00 7.4 9 Sudeste 17 Sur 0.8 1017.8 1.6 78
2018-02-12 19:00:00 7.6 11 Sudeste 17 Este 0.1 1017.2 0.9 83
2018-02-12 18:00:00 7.2 12 Este 18 Este 0.8 1016.5 -0.1 86
2018-02-12 17:00:00 7.3 15 Este 22 Este 0.3 1016.2 -0.5 87
2018-02-12 16:00:00 7.5 12 Este 22 Este 0.2 1016.3 -0.6 87
2018-02-12 15:00:00 7.7 16 Este 24 Este 0.9 1016.6 -0.2 87
2018-02-12 14:00:00 8.3 18 Este 26 Este 0.1 1016.7 0.2 88
2018-02-12 13:00:00 8.2 22 Este 33 Sudeste 0 1016.9 1.4 89
2018-02-12 12:00:00 9.7 21 Sudeste 30 Sudeste 0 1016.8 1.5 86
2018-02-12 11:00:00 10.1 17 Sudeste 30 Sudeste 0 1016.5 1.6 86
2018-02-12 10:00:00 11.3 8 Sur 33 Sudeste 0 1015.5 1.3 85
2018-02-12 09:00:00 10.7 19 Este 26 Sudeste 0.5 1015.3 1 87
2018-02-12 08:00:00 11.1 9 Sudeste 15 Sudeste 1.4 1014.9 0.9 85
2018-02-12 07:00:00 11.1 9 Este 15 Sudeste 0 1014.2 0 80
2018-02-12 06:00:00 12 9 Sudeste 22 Sudeste 0 1014.3 -0.1 75
2018-02-12 05:00:00 12.2 7 Sudeste 13 Sudeste 0 1014 0.1 78
2018-02-12 04:00:00 11.5 7 Este 13 Nordeste 0 1014.2 0.1 80
2018-02-12 03:00:00 11.3 11 Nordeste 17 Norte 0 1014.4 0.9 68
2018-02-12 02:00:00 11.7 9 Norte 18 Nordeste 0 1013.9 1 68
2018-02-12 01:00:00 11.6 8 Norte 15 Norte 0 1014.1 1.1 76
2018-02-12 00:00:00 12.3 5 Nordeste 8 Nordeste 0 1013.5 0.4 78
2018-02-11 23:00:00 12.3 4 Norte 15 Oeste 0 1012.9 -0.6 81
2018-02-11 22:00:00 13.3 15 Oeste 26 Sudoeste 0 1013 -0.5 80
2018-02-11 21:00:00 13.6 19 Sudoeste 30 Sudoeste 0 1013.1 -0.1 74
2018-02-11 20:00:00 13.2 23 Oeste 30 Oeste 0 1013.5 0.1 74
2018-02-11 19:00:00 13 27 Oeste 35 Oeste 0 1013.5 0 73
2018-02-11 18:00:00 13.2 27 Oeste 37 Oeste 0 1013.2 -0.7 79
2018-02-11 17:00:00 13.9 26 Sudoeste 37 Sudoeste 0 1013.4 -1.3 71
2018-02-11 16:00:00 14.7 30 Sudoeste 42 Oeste 0 1013.5 -2.2 65
2018-02-11 15:00:00 14.2 31 Sudoeste 39 Sudoeste 0 1013.9 -2.8 64
2018-02-11 14:00:00 13.7 29 Oeste 41 Oeste 0 1014.7 -2.6 60
2018-02-11 13:00:00 12.3 22 Sudoeste 28 Sudoeste 0 1015.7 -1.5 53
2018-02-11 12:00:00 11 4 Norte 22 Norte 0 1016.7 -0.6 47
2018-02-11 11:00:00 8.2 17 Norte 24 Norte 0 1017.3 0.3 53
2018-02-11 10:00:00 6.2 17 Norte 26 Norte 0 1017.2 0.6 57
2018-02-11 09:00:00 4.4 20 Norte 26 Norte 0 1017.3 0.7 60
2018-02-11 08:00:00 3.3 19 Norte 26 Norte 0 1017 0.3 62
2018-02-11 07:00:00 2.7 20 Norte 30 Norte 0 1016.6 -0.3 58
2018-02-11 06:00:00 2.7 20 Norte 28 Norte 0 1016.6 -0.5 54
2018-02-11 05:00:00 2.5 19 Norte 30 Norte 0 1016.7 -0.6 52
2018-02-11 04:00:00 3 17 Norte 26 Norte 0 1016.9 -0.5 47
2018-02-11 03:00:00 3.7 19 Norte 30 Norte 0 1017.1 -0.7 44
2018-02-11 02:00:00 3 20 Norte 30 Norte 0 1017.3 -0.2 49
2018-02-11 01:00:00 3.8 15 Norte 26 Norte 0 1017.4 -0.1 50
2018-02-11 00:00:00 4.3 12 Noroeste 21 Norte 0 1017.8 0.7 51
2018-02-10 23:00:00 5.2 13 Norte 18 Norte 0 1017.5 1 47
2018-02-10 22:00:00 5 12 Norte 17 Norte 0 1017.5 1.5 50
2018-02-10 21:00:00 5.9 6 Norte 15 Noroeste 0 1017.1 2 48
2018-02-10 20:00:00 7.1 10 Noroeste 18 Noroeste 0 1016.5 2.1 49
2018-02-10 19:00:00 10.3 10 Noroeste 15 Noroeste 0 1016 1.5 37
2018-02-10 18:00:00 12.3 8 Sudeste 15 Sur 0 1015.1 0.5 26
2018-02-10 17:00:00 12.9 12 Sur 22 Sur 0 1014.4 -0.6 23
2018-02-10 16:00:00 13.3 4 Sudeste 24 Noroeste 0 1014.5 -1.3 21
2018-02-10 15:00:00 12.9 15 Noroeste 28 Noroeste 0 1014.6 -2.1 19
2018-02-10 14:00:00 11.9 12 Norte 28 Norte 0 1015 -2.1 20
2018-02-10 13:00:00 11.2 14 Noroeste 30 Norte 0 1015.8 -1.5 22
2018-02-10 12:00:00 10.1 18 Norte 30 Norte 0 1016.7 -0.3 24
2018-02-10 11:00:00 8.7 9 Norte 21 Norte 0 1017.1 0.5 32
2018-02-10 10:00:00 7.1 14 Norte 21 Norte 0 1017.3 0.5 38
2018-02-10 09:00:00 3.3 10 Norte 24 Norte 0 1017 0.2 60
2018-02-10 08:00:00 3.2 18 Norte 26 Norte 0 1016.6 0.5 61
2018-02-10 07:00:00 3.3 18 Norte 24 Norte 0 1016.8 0.4 64
2018-02-10 06:00:00 3.3 14 Norte 26 Norte 0 1016.8 0.6 72
2018-02-10 05:00:00 3.9 13 Norte 32 Norte 0 1016.1 -0.3 72
2018-02-10 04:00:00 4.7 22 Norte 30 Norte 0 1016.4 0.2 70
2018-02-10 03:00:00 5.4 18 Norte 24 Norte 0 1016.2 0 68
2018-02-10 02:00:00 5.4 16 Norte 22 Norte 0 1016.4 0 67
2018-02-10 01:00:00 4.8 14 Norte 18 Norte 0 1016.2 -0.5 70
2018-02-10 00:00:00 5.9 9 Norte 15 Norte 0 1016.2 -0.4 64
2018-02-09 23:00:00 6.2 12 Norte 15 Norte 0 1016.4 0.2 62
2018-02-09 22:00:00 6.8 5 Norte 9 Norte 0 1016.7 0.5 59
2018-02-09 21:00:00 7.7 8 Nordeste 17 Oeste 0 1016.6 0.9 53
2018-02-09 20:00:00 8.1 10 Oeste 13 Oeste 0 1016.2 0.8 51
2018-02-09 19:00:00 8.3 7 Noroeste 15 Noroeste 0 1016.2 0.8 51
2018-02-09 18:00:00 9.8 5 Oeste 18 Oeste 0 1015.7 -0.3 48
2018-02-09 17:00:00 9.3 14 Oeste 28 Sudoeste 0 1015.4 -1.5 53
2018-02-09 16:00:00 9.7 23 Sudoeste 32 Oeste 0 1015.4 -2.2 55
2018-02-09 15:00:00 10.1 19 Sudoeste 26 Sudoeste 0 1016 -2.3 52
2018-02-09 14:00:00 9.5 13 Sudoeste 21 Sudoeste 0 1016.9 -1.8 48
2018-02-09 13:00:00 9.8 3 Noroeste 22 Norte 0 1017.6 -1.2 47
2018-02-09 12:00:00 7.5 14 Norte 28 Norte 0 1018.3 -0.5 52
2018-02-09 11:00:00 5.7 21 Norte 26 Norte 0 1018.7 0.4 54
2018-02-09 10:00:00 3.4 18 Norte 24 Norte 0 1018.8 0.7 63
2018-02-09 09:00:00 1.6 15 Norte 22 Norte 0 1018.8 0.9 72
2018-02-09 08:00:00 0.7 17 Norte 28 Norte 0 1018.3 0.2 77
2018-02-09 07:00:00 0.6 21 Norte 30 Norte 0 1018.1 -0.1 81
2018-02-09 06:00:00 0.9 20 Norte 30 Norte 0 1017.9 -0.7 81
2018-02-09 05:00:00 0.9 14 Norte 28 Norte 0 1018.1 -0.7 83
2018-02-09 04:00:00 1.2 19 Norte 28 Norte 0 1018.2 -0.9 83
2018-02-09 03:00:00 1.6 18 Norte 24 Norte 0 1018.6 -0.6 82
2018-02-09 02:00:00 2 19 Norte 26 Norte 0 1018.8 -0.2 82
2018-02-09 01:00:00 2.6 15 Norte 22 Norte 0 1019.1 0.4 81
2018-02-09 00:00:00 3 11 Norte 17 Norte 0 1019.2 0.1 80
2018-02-08 23:00:00 3.7 14 Norte 21 Norte 0 1019 -0.2 81
2018-02-08 22:00:00 4.7 13 Norte 17 Norte 0 1018.7 -0.1 84
2018-02-08 21:00:00 4.9 7 Noroeste 13 Sur 0 1019.1 1 82
2018-02-08 20:00:00 4.9 11 Sur 26 Sudeste 0.3 1019.2 1.4 85
2018-02-08 19:00:00 5.9 10 Sur 22 Este 0 1018.8 1.3 80
2018-02-08 18:00:00 6 21 Este 32 Este 0 1018.1 0.9 75
2018-02-08 17:00:00 6.2 26 Este 32 Este 0 1017.8 0.5 76
2018-02-08 16:00:00 6.4 20 Este 26 Este 0 1017.5 0.3 76
2018-02-08 15:00:00 6.2 22 Nordeste 30 Este 0 1017.2 -0.5 77
2018-02-08 14:00:00 6.2 20 Este 33 Este 0 1017.3 0 76
2018-02-08 13:00:00 8.7 8 Nordeste 17 Nordeste 0 1017.2 -0.1 61
2018-02-08 12:00:00 7.2 12 Norte 22 Norte 0 1017.7 0.7 56
2018-02-08 11:00:00 4.4 19 Norte 30 Norte 0 1017.3 0.6 61
2018-02-08 10:00:00 3.7 19 Norte 28 Norte 0 1017.3 1 65
2018-02-08 09:00:00 2.7 20 Norte 33 Norte 0 1017 0.8 69
2018-02-08 08:00:00 2.6 20 Norte 30 Norte 0 1016.7 0.5 68
2018-02-08 07:00:00 3.3 21 Norte 32 Norte 0 1016.3 0.1 65
2018-02-08 06:00:00 3.1 21 Norte 30 Norte 0 1016.2 -0.4 65
2018-02-08 05:00:00 2.9 22 Norte 32 Norte 0 1016.2 -0.4 66
2018-02-08 04:00:00 2.8 21 Norte 30 Norte 0 1016.2 -0.3 66
2018-02-08 03:00:00 3.4 21 Norte 32 Norte 0 1016.6 0.2 62
2018-02-08 02:00:00 3.3 19 Norte 26 Norte 0 1016.6 0.9 65
2018-02-08 01:00:00 3.7 16 Norte 26 Norte 0 1016.5 1.2 67
2018-02-08 00:00:00 3.9 18 Norte 24 Norte 0 1016.4 1.5 69
2018-02-07 23:00:00 3.8 15 Norte 21 Norte 0 1015.7 1.1 68
2018-02-07 22:00:00 5 12 Norte 17 Norte 0 1015.3 1.4 62
2018-02-07 21:00:00 6 4 Norte 5 Norte 0 1014.9 2.1 53
2018-02-07 20:00:00 6.5 3 Noroeste 13 Oeste 0 1014.6 2.6 53
2018-02-07 19:00:00 7.8 10 Oeste 18 Noroeste 0 1013.9 2.2 46
2018-02-07 18:00:00 10.3 13 Noroeste 21 Noroeste 0 1012.8 1.2 36
2018-02-07 17:00:00 11.3 15 Noroeste 26 Noroeste 0 1012 0.2 36
2018-02-07 16:00:00 11.4 14 Sudoeste 30 Sudoeste 0 1011.7 -0.2 45
2018-02-07 15:00:00 10.8 19 Sudoeste 26 Sudoeste 0 1011.6 -0.4 47
2018-02-07 14:00:00 10.2 14 Sudoeste 21 Sur 0 1011.8 0.1 44
2018-02-07 13:00:00 10.3 9 Sudoeste 15 Sudoeste 0 1011.9 0.7 45
2018-02-07 12:00:00 8.8 5 Norte 22 Norte 0 1012 1.8 49
2018-02-07 11:00:00 6.6 16 Norte 24 Norte 0 1011.7 2.3 56
2018-02-07 10:00:00 5.1 15 Norte 26 Norte 0 1011.2 2.4 63
2018-02-07 09:00:00 4 19 Norte 28 Norte 0 1010.2 1.6 67
2018-02-07 08:00:00 3.8 9 Noroeste 17 Noroeste 0 1009.4 1.2 65
2018-02-07 07:00:00 4.2 13 Norte 22 Norte 0 1008.8 1 65
2018-02-07 06:00:00 4.5 15 Norte 18 Norte 0 1008.6 0.9 67
2018-02-07 05:00:00 5.7 13 Norte 24 Norte 0 1008.2 0.8 64
2018-02-07 04:00:00 6.7 12 Norte 15 Norte 0 1007.8 0.5 62
2018-02-07 03:00:00 6.9 10 Noroeste 17 Norte 0 1007.7 0.3 65
2018-02-07 02:00:00 6.9 8 Norte 17 Norte 0 1007.4 0 66
2018-02-07 01:00:00 7.4 12 Norte 18 Noroeste 0 1007.3 0 64
2018-02-07 00:00:00 7.6 15 Noroeste 21 Noroeste 0 1007.4 0.5 64
2018-02-06 23:00:00 7.6 14 Noroeste 22 Noroeste 0 1007.4 0.8 66
2018-02-06 22:00:00 7.8 15 Noroeste 21 Noroeste 0 1007.3 1.2 69
2018-02-06 21:00:00 8.6 19 Noroeste 28 Noroeste 0 1006.9 1.6 75
2018-02-06 20:00:00 9.5 8 Noroeste 11 Norte 0 1006.6 1.5 77
2018-02-06 19:00:00 10.1 8 Norte 15 Este 0 1006.1 1 77
2018-02-06 18:00:00 10.8 3 Este 8 Este 0 1005.3 -0.1 63
2018-02-06 17:00:00 11.1 6 Este 13 Este 0 1005.1 -0.9 62
2018-02-06 16:00:00 11.2 11 Este 21 Este 0 1005.1 -1.5 65
2018-02-06 15:00:00 11.1 16 Este 24 Este 0 1005.4 -1.7 67
2018-02-06 14:00:00 10.9 19 Este 24 Este 0 1006 -1.3 71
2018-02-06 13:00:00 10.7 20 Este 30 Este 0 1006.6 -0.8 76
2018-02-06 12:00:00 10 9 Norte 17 Norte 0 1007.1 -0.2 83
2018-02-06 11:00:00 8.8 12 Norte 28 Este 0 1007.3 0.3 89
2018-02-06 10:00:00 8.3 12 Nordeste 21 Este 0.4 1007.4 1.1 90
2018-02-06 09:00:00 8.4 15 Este 22 Este 3.1 1007.3 0.9 89
2018-02-06 08:00:00 7.5 5 Noroeste 11 Noroeste 1.3 1007 0.7 89
2018-02-06 07:00:00 7.7 10 Norte 21 Norte 0 1006.3 0 86
2018-02-06 06:00:00 7.5 12 Norte 17 Norte 0 1006.4 -0.9 90
2018-02-06 05:00:00 7.9 10 Norte 17 Norte 0 1006.3 -1.2 92
2018-02-06 04:00:00 8.8 15 Norte 24 Nordeste 0 1006.3 -1.4 92
2018-02-06 03:00:00 9.1 17 Nordeste 22 Nordeste 0 1007.3 -0.5 93
2018-02-06 02:00:00 8.5 9 Norte 13 Nordeste 0.4 1007.5 -0.4 93
2018-02-06 01:00:00 8.6 11 Nordeste 15 Nordeste 0.7 1007.7 -0.1 92
2018-02-06 00:00:00 9.2 11 Noroeste 17 Sudoeste 3.1 1007.8 0.2 89
2018-02-05 23:00:00 9.3 8 Oeste 18 Nordeste 3.2 1007.9 0.4 93
2018-02-05 22:00:00 9.9 17 Nordeste 22 Nordeste 1.3 1007.8 0.5 90
2018-02-05 21:00:00 10 17 Nordeste 24 Este 0.1 1007.6 0.6 87
2018-02-05 20:00:00 10 15 Nordeste 26 Este 0.2 1007.5 0.7 86
2018-02-05 19:00:00 9.8 18 Nordeste 24 Nordeste 0 1007.3 0.8 91
2018-02-05 18:00:00 8.9 14 Norte 26 Norte 0.1 1007 0.1 93
2018-02-05 17:00:00 8.7 22 Norte 28 Norte 3.4 1006.8 -0.6 92
2018-02-05 16:00:00 9.3 22 Norte 32 Norte 0.3 1006.5 -0.9 89
2018-02-05 15:00:00 9.3 20 Norte 28 Norte 0 1006.9 -0.8 88
2018-02-05 14:00:00 9.3 9 Norte 37 Oeste 0.4 1007.4 -0.7 89
2018-02-05 13:00:00 9.9 12 Norte 17 Norte 0 1007.4 -1 90
2018-02-05 12:00:00 9.8 15 Nordeste 22 Nordeste 1.7 1007.7 0.2 90
2018-02-05 11:00:00 8.7 15 Norte 24 Nordeste 1.5 1008.1 0.8 91
2018-02-05 10:00:00 8.5 11 Noroeste 24 Este 9.2 1008.4 1.1 89
2018-02-05 09:00:00 10 22 Este 28 Este 0 1007.5 0.1 88
2018-02-05 08:00:00 9.8 15 Este 30 Este 0.5 1007.3 -0.1 90
2018-02-05 07:00:00 9.8 27 Este 35 Este 0.1 1007.3 -0.4 88
2018-02-05 06:00:00 9.7 21 Este 39 Este 0 1007.4 -1.1 89
2018-02-05 05:00:00 9.9 23 Sudeste 46 Este 3.7 1007.4 -1.9 89
2018-02-05 04:00:00 9 28 Este 37 Este 3.5 1007.7 -2 91
2018-02-05 03:00:00 6.7 15 Norte 30 Norte 1.8 1008.5 -1.2 92
2018-02-05 02:00:00 6.5 13 Norte 24 Norte 1.8 1009.3 -1 92
2018-02-05 01:00:00 6.5 18 Norte 28 Norte 2.7 1009.7 -0.4 92
2018-02-05 00:00:00 6.8 19 Norte 76 Norte 1 1009.7 -0.2 91
2018-02-04 23:00:00 7.2 14 Noroeste 26 Noroeste 3.1 1010.3 0.3 92
2018-02-04 22:00:00 7.3 14 Norte 41 Nordeste 4.3 1010.1 -0.2 93
2018-02-04 21:00:00 8.8 32 Este 50 Nordeste 1 1009.9 -0.5 85
2018-02-04 20:00:00 8.8 37 Este 50 Este 2.5 1010 -0.4 86
2018-02-04 19:00:00 7.3 15 Norte 28 Noroeste 7.5 1010.3 0 92
2018-02-04 18:00:00 7.2 17 Norte 35 Nordeste 9.1 1010.4 0.4 94
2018-02-04 17:00:00 8.5 29 Nordeste 59 Este 4.1 1010.4 -0.2 88
2018-02-04 16:00:00 9.3 41 Este 59 Este 2.4 1010.3 -1 83
2018-02-04 15:00:00 9.8 38 Este 55 Este 0.3 1010 -1.9 80
2018-02-04 14:00:00 10.3 38 Este 46 Este 0.1 1010.6 -1.2 76
2018-02-04 13:00:00 9.3 23 Nordeste 33 Nordeste 1.1 1011.3 -0.2 86
2018-02-04 12:00:00 9.8 28 Este 45 Este 0.5 1011.9 0.7 83
2018-02-04 11:00:00 10.4 31 Nordeste 41 Este 0 1011.8 0.8 76
2018-02-04 10:00:00 8.5 16 Norte 24 Norte 0 1011.5 0.8 70
2018-02-04 09:00:00 7.4 17 Norte 26 Norte 0 1011.2 0.7 74
2018-02-04 08:00:00 7.3 16 Norte 22 Norte 0 1011 0.9 75
2018-02-04 07:00:00 7 17 Norte 22 Norte 0 1010.7 0.9 76
2018-02-04 06:00:00 6.8 10 Norte 15 Norte 0 1010.5 0.5 77
2018-02-04 05:00:00 7 12 Norte 18 Norte 0 1010.1 0 76
2018-02-04 04:00:00 7.1 11 Norte 24 Norte 0 1009.8 0 76
2018-02-04 03:00:00 7.3 13 Norte 18 Norte 0 1010 -0.1 75
2018-02-04 02:00:00 7.4 11 Norte 17 Norte 0 1010.1 0.3 73
2018-02-04 01:00:00 7.6 7 Norte 13 Norte 0 1009.8 0.2 70
2018-02-04 00:00:00 7 5 Noroeste 13 Noroeste 0 1010.1 0.4 71
2018-02-03 23:00:00 7.8 9 Noroeste 17 Oeste 0 1009.8 -0.1 68
2018-02-03 22:00:00 9.8 6 Sudoeste 21 Noroeste 0 1009.6 -0.2 59
2018-02-03 21:00:00 10.1 9 Oeste 24 Oeste 0 1009.7 0.4 55
2018-02-03 20:00:00 9.7 12 Oeste 26 Oeste 0 1009.9 0.5 56
2018-02-03 19:00:00 10 17 Oeste 28 Oeste 0 1009.8 0.3 53
2018-02-03 18:00:00 11.7 18 Oeste 32 Oeste 0 1009.3 -0.5 47
2018-02-03 17:00:00 12.7 18 Oeste 24 Noroeste 0 1009.4 -0.8 44
2018-02-03 16:00:00 11.8 20 Oeste 42 Noroeste 0 1009.5 -1.4 47
2018-02-03 15:00:00 11.7 30 Noroeste 55 Noroeste 0 1009.8 -1.9 44
2018-02-03 14:00:00 11.5 32 Noroeste 45 Noroeste 0 1010.2 -2.1 43
2018-02-03 13:00:00 12.8 24 Noroeste 39 Noroeste 0 1010.9 -1.5 32
2018-02-03 12:00:00 12.2 5 Oeste 17 Sudoeste 0 1011.7 -0.1 32
2018-02-03 11:00:00 9.1 12 Norte 21 Norte 0 1012.3 1 47
2018-02-03 10:00:00 6.8 16 Norte 28 Norte 0 1012.4 2.1 49
2018-02-03 09:00:00 4.3 14 Norte 26 Norte 0 1011.8 2.2 55
2018-02-03 08:00:00 3.7 16 Norte 30 Norte 0 1011.3 1.8 55
2018-02-03 07:00:00 4.6 21 Norte 33 Norte 0 1010.3 1 52
2018-02-03 06:00:00 5.6 22 Norte 33 Norte 0 1009.6 0.3 44
2018-02-03 05:00:00 5.2 17 Norte 26 Norte 0 1009.5 0.5 45
2018-02-03 04:00:00 5.2 15 Norte 24 Norte 0 1009.3 0.4 43
2018-02-03 03:00:00 4.9 8 Norte 17 Nordeste 0 1009.3 0.5 43
2018-02-03 02:00:00 4.8 13 Norte 21 Norte 0 1009 0.3 43
2018-02-03 01:00:00 4.6 19 Norte 26 Norte 0 1008.9 0.6 45
2018-02-03 00:00:00 5.3 13 Norte 18 Norte 0 1008.8 1 43
2018-02-02 23:00:00 5.1 13 Norte 21 Noroeste 0 1008.7 1.4 46
2018-02-02 22:00:00 5.5 11 Norte 17 Norte 0 1008.3 1.9 55
2018-02-02 21:00:00 6.2 13 Norte 18 Norte 0 1007.8 2.2 63
2018-02-02 20:00:00 7.7 6 Norte 9 Norte 0 1007.3 2.1 63
2018-02-02 19:00:00 8.7 3 Norte 8 Oeste 0 1006.4 1.5 60
2018-02-02 18:00:00 10.9 6 Noroeste 13 Noroeste 0 1005.6 1 51
2018-02-02 17:00:00 11.4 8 Noroeste 13 Norte 0 1005.2 0.5 50
2018-02-02 16:00:00 11.9 5 Noroeste 13 Norte 0 1004.9 -0.5 52
2018-02-02 15:00:00 10.2 11 Norte 18 Norte 0 1004.6 -1.2 57
2018-02-02 14:00:00 9.6 11 Norte 22 Norte 0 1004.7 -1.4 66
2018-02-02 13:00:00 8.3 18 Norte 30 Norte 0 1005.4 -0.6 69
2018-02-02 12:00:00 7.6 20 Norte 28 Norte 0 1005.8 -0.1 71
2018-02-02 11:00:00 7.1 16 Norte 24 Norte 0 1006.1 0.5 76
2018-02-02 10:00:00 6.6 14 Norte 21 Norte 0 1006 0.8 78
2018-02-02 09:00:00 6.6 8 Norte 15 Norte 0 1005.9 0.5 76
2018-02-02 08:00:00 6 9 Norte 15 Norte 0 1005.6 -0.3 85
2018-02-02 07:00:00 6.1 10 Norte 22 Norte 0 1005.2 -0.7 85
2018-02-02 06:00:00 6.3 15 Norte 24 Norte 0 1005.4 -0.7 84
2018-02-02 05:00:00 6.2 17 Norte 26 Norte 0 1005.9 -0.9 85
2018-02-02 04:00:00 6.2 17 Norte 28 Norte 0 1005.9 -2 86
2018-02-02 03:00:00 6.8 15 Norte 22 Norte 0 1006.1 -2 80
2018-02-02 02:00:00 6.3 13 Noroeste 26 Norte 0 1006.8 -0.4 84
2018-02-02 01:00:00 6.6 14 Norte 28 Norte 1.9 1007.9 0.7 83
2018-02-02 00:00:00 7.2 8 Norte 17 Norte 0.6 1008.1 0.9 86
2018-02-01 23:00:00 7.9 10 Norte 24 Este 0 1007.2 0 80
2018-02-01 22:00:00 8.2 19 Este 33 Este 0 1007.2 0.4 80
2018-02-01 21:00:00 8 31 Este 45 Este 0 1007.2 0.9 75
2018-02-01 20:00:00 8 26 Este 35 Este 0 1007.2 0.9 83
2018-02-01 19:00:00 7.8 28 Este 39 Este 0.3 1006.8 0.5 86
2018-02-01 18:00:00 9.3 23 Este 30 Este 0.5 1006.3 -0.5 88
2018-02-01 17:00:00 10.3 9 Este 22 Este 0.1 1006.3 -1.1 84
2018-02-01 16:00:00 10.4 13 Norte 17 Norte 0 1006.3 -2.1 79
2018-02-01 15:00:00 11.3 14 Norte 21 Norte 0 1006.8 -2.4 68
2018-02-01 14:00:00 11.3 12 Norte 18 Norte 0 1007.4 -2.5 65
2018-02-01 13:00:00 10.7 14 Norte 21 Norte 0 1008.4 -1.2 67
2018-02-01 12:00:00 9.7 14 Norte 18 Norte 0 1009.2 -1 69
2018-02-01 11:00:00 8.2 15 Norte 22 Norte 0 1009.9 -1.1 73
2018-02-01 10:00:00 7.6 16 Norte 22 Norte 0 1009.6 -1.7 76
2018-02-01 09:00:00 6.7 12 Norte 15 Norte 0 1010.2 -1.7 80
2018-02-01 08:00:00 6 12 Norte 18 Norte 0 1011 -1.7 82
2018-02-01 07:00:00 5.8 12 Norte 21 Norte 0 1011.3 -2.1 84
2018-02-01 06:00:00 6.1 10 Norte 17 Norte 0 1011.9 -2.2 85
2018-02-01 05:00:00 6.4 5 Norte 18 Norte 0 1012.7 -2.2 86
2018-02-01 04:00:00 7.2 4 Norte 13 Norte 0 1013.4 -2.7 87
2018-02-01 03:00:00 7.6 4 Norte 11 Norte 0 1014.1 -2.8 86
2018-02-01 02:00:00 8.2 0 Calma 13 Norte 0 1014.9 -2.6 84
2018-02-01 01:00:00 10.5 10 Oeste 21 Oeste 0 1016.1 -2.7 82
2018-02-01 00:00:00 10.4 12 Oeste 22 Oeste 0 1016.9 -1.9 82
2018-01-31 23:00:00 11 15 Oeste 21 Oeste 0 1017.5 -1.4 82
2018-01-31 22:00:00 10.7 12 Oeste 18 Oeste 0 1018.8 0.3 86
2018-01-31 21:00:00 10.6 14 Oeste 26 Oeste 0 1018.8 -0.7 82
2018-01-31 20:00:00 11.6 17 Sudoeste 22 Sudoeste 0 1018.9 -1 78
2018-01-31 19:00:00 12 15 Sudoeste 24 Sudoeste 0 1018.5 -2.2 78
2018-01-31 18:00:00 12.9 18 Sudoeste 33 Sudoeste 0 1019.5 -2.2 76
2018-01-31 17:00:00 14 27 Sudoeste 37 Sudoeste 0 1019.9 -2.7 67
2018-01-31 16:00:00 14.5 26 Oeste 39 Sudoeste 0 1020.7 -2.9 61
2018-01-31 15:00:00 14.5 24 Sudoeste 39 Sudoeste 0 1021.7 -2.9 65
2018-01-31 14:00:00 14.4 29 Sudoeste 39 Sudoeste 0 1022.6 -2.6 63
2018-01-31 13:00:00 14.4 30 Sudoeste 41 Sudoeste 0 1023.6 -1.9 61
2018-01-31 12:00:00 14 23 Sudoeste 30 Sudoeste 0 1024.6 -0.9 63
2018-01-31 11:00:00 10.5 6 Norte 13 Norte 0 1025.2 -0.2 70
2018-01-31 10:00:00 7.2 12 Norte 18 Norte 0 1025.5 0.2 78
2018-01-31 09:00:00 5.4 15 Norte 24 Norte 0 1025.5 0.1 82
2018-01-31 08:00:00 4.7 19 Norte 24 Norte 0 1025.4 -0.3 85
2018-01-31 07:00:00 5.4 18 Norte 26 Norte 0 1025.3 -0.8 83
2018-01-31 06:00:00 5.8 20 Norte 26 Norte 0 1025.4 -1.1 85
2018-01-31 05:00:00 5.9 21 Norte 26 Norte 0 1025.7 -1.1 84
2018-01-31 04:00:00 6.6 17 Norte 24 Norte 0 1026.1 -1.2 83
2018-01-31 03:00:00 7.2 14 Norte 21 Norte 0 1026.5 -1.1 83
2018-01-31 02:00:00 7.5 13 Norte 17 Norte 0 1026.8 -1 86
2018-01-31 01:00:00 7.7 8 Norte 13 Norte 0 1027.3 -0.8 88
2018-01-31 00:00:00 8.1 3 Norte 9 Norte 0 1027.6 -0.3 86
2018-01-30 23:00:00 8.8 11 Norte 13 Norte 0 1027.8 0.2 85
2018-01-30 22:00:00 9.6 10 Norte 13 Norte 0 1028.1 1.2 84
2018-01-30 21:00:00 10.1 6 Norte 9 Oeste 0 1027.9 1.2 79
2018-01-30 20:00:00 12.2 13 Oeste 24 Sudoeste 0 1027.6 0.8 77
2018-01-30 19:00:00 12.8 18 Sudoeste -- -- -- 1026.9 -0.3 78
2018-01-30 18:00:00 13.4 21 Sudoeste 28 Sudoeste 0 1026.7 -1 75
2018-01-30 17:00:00 14.2 23 Sudoeste 30 Sudoeste 0 1026.8 -1.4 71
2018-01-30 16:00:00 14.5 25 Sudoeste 32 Sudoeste 0 1027.2 -1.9 68
2018-01-30 15:00:00 15.1 17 Sudoeste 24 Sudoeste 0 1027.7 -2.3 62
2018-01-30 14:00:00 14.3 15 Sudoeste 21 Sudoeste 0 1028.2 -2.2 67
2018-01-30 13:00:00 14.8 10 Sur 17 Sudoeste 0 1029.1 -1.3 58
2018-01-30 12:00:00 13.5 3 Norte 21 Norte 0 1030 -0.4 60
2018-01-30 11:00:00 10.7 16 Norte 22 Norte 0 1030.4 0.2 68
2018-01-30 10:00:00 8.7 14 Norte 21 Norte 0 1030.4 0.4 75
2018-01-30 09:00:00 6.8 16 Norte 22 Norte 0 1030.4 0.5 80
2018-01-30 08:00:00 6.1 17 Norte 22 Norte 0 1030.2 0.1 83
2018-01-30 07:00:00 6.3 18 Norte 22 Norte 0 1030 -0.6 82
2018-01-30 06:00:00 6.2 17 Norte 26 Norte 0 1029.9 -1.3 83
2018-01-30 05:00:00 6.8 18 Norte 24 Norte 0 1030.1 -1.3 82
2018-01-30 04:00:00 7.3 17 Norte 22 Norte 0 1030.6 -1.2 81
2018-01-30 03:00:00 7.7 18 Norte 24 Norte 0 1031.2 -0.7 80
2018-01-30 02:00:00 8.2 16 Norte 24 Norte 0 1031.4 -0.6 80
2018-01-30 01:00:00 8.1 3 Norte 9 Norte 0 1031.8 -0.1 82
2018-01-30 00:00:00 8.8 10 Norte 17 Norte 0 1031.9 0.2 81
2018-01-29 23:00:00 9.1 4 Norte 8 Nordeste 0 1032 0.2 82
2018-01-29 22:00:00 9.3 0 Calma 8 Norte 0 1031.9 0.3 81
2018-01-29 21:00:00 10.7 5 Norte 9 Oeste 0 1031.7 0.2 79
2018-01-29 20:00:00 11.7 4 Noroeste 13 Oeste 0 1031.8 0.5 77
2018-01-29 19:00:00 12.5 11 Sudoeste 17 Oeste 0 1031.6 0.1 76
2018-01-29 18:00:00 13.2 14 Oeste 26 Sudoeste 0 1031.5 -0.5 75
2018-01-29 17:00:00 14.4 22 Sudoeste 28 Sudoeste 0 1031.3 -1.7 66
2018-01-29 16:00:00 14.7 21 Sudoeste 26 Sudoeste 0 1031.5 -2.6 67
2018-01-29 15:00:00 14.9 17 Sudoeste 24 Sudoeste 0 1032 -3.2 68
2018-01-29 14:00:00 15.6 11 Sudoeste 21 Sudoeste 0 1033 -2.5 61
2018-01-29 13:00:00 16.1 2 Norte 17 Norte 0 1034.1 -1.5 58
2018-01-29 12:00:00 13.7 13 Norte 26 Norte 0 1035.2 -0.2 59
2018-01-29 11:00:00 11.5 18 Norte 26 Norte 0 1035.5 0.6 65
2018-01-29 10:00:00 8.9 20 Norte 28 Norte 0 1035.6 0.9 74
2018-01-29 09:00:00 7.3 17 Norte 26 Norte 0 1035.4 0.7 80
2018-01-29 08:00:00 7.2 18 Norte 28 Norte 0 1034.9 0 81
2018-01-29 07:00:00 7.4 21 Norte 28 Norte 0 1034.7 -0.8 81
2018-01-29 06:00:00 7.8 21 Norte 30 Norte 0 1034.7 -1 80
2018-01-29 05:00:00 7.8 20 Norte 26 Norte 0 1034.9 -1.2 81
2018-01-29 04:00:00 8.3 18 Norte 24 Norte 0 1035.5 -0.9 80
2018-01-29 03:00:00 8.7 19 Norte 26 Norte 0 1035.7 -1 79
2018-01-29 02:00:00 9.3 16 Norte 22 Norte 0 1036.1 -0.6 77
2018-01-29 01:00:00 8.3 9 Norte 13 Norte 0 1036.4 -0.5 82
2018-01-29 00:00:00 8.3 7 Norte 15 Norte 0 1036.7 -0.1 82
2018-01-28 23:00:00 8.6 13 Norte 17 Norte 0 1036.7 -0.1 81
2018-01-28 22:00:00 9.2 8 Norte 15 Norte 0 1036.9 0.3 81
2018-01-28 21:00:00 9.9 5 Noroeste 13 Oeste 0 1036.8 0.7 80
2018-01-28 20:00:00 10.7 4 Norte 11 Oeste 0 1036.8 1.1 80
2018-01-28 19:00:00 12.6 4 Norte 21 Este 0 1036.6 1 74
2018-01-28 18:00:00 13.5 14 Este 24 Este 0 1036.1 0.6 71
2018-01-28 17:00:00 14.6 16 Este 22 Este 0 1035.7 -0.2 68
2018-01-28 16:00:00 14.8 13 Este 22 Este 0 1035.6 -0.8 67
2018-01-28 15:00:00 15.1 17 Este 24 Este 0 1035.5 -1.4 66
2018-01-28 14:00:00 15.4 16 Sudeste 26 Este 0 1035.9 -1 63
2018-01-28 13:00:00 15.3 17 Este 26 Este 0 1036.4 0.1 58
2018-01-28 12:00:00 14.7 19 Este 26 Este 0 1036.9 1.3 59
2018-01-28 11:00:00 13.2 12 Norte 21 Norte 0 1036.9 2.2 64
2018-01-28 10:00:00 10.5 14 Norte 21 Norte 0 1036.3 2.3 70
2018-01-28 09:00:00 9.6 13 Norte 21 Norte 0 1035.6 2.6 72
2018-01-28 08:00:00 9.1 14 Norte 18 Norte 0 1034.7 2.2 76
2018-01-28 07:00:00 8.7 13 Norte 18 Norte 0 1034 1.6 76
2018-01-28 06:00:00 9.7 14 Norte 22 Norte 0 1033 0.6 72
2018-01-28 05:00:00 10.1 17 Norte 22 Norte 0 1032.5 0.3 70
2018-01-28 04:00:00 10.3 16 Norte 21 Norte 0 1032.4 0.2 70
2018-01-28 03:00:00 11.2 13 Norte 21 Nordeste 0 1032.4 0.3 67
2018-01-28 02:00:00 12 14 Norte 22 Nordeste 0 1032.2 0.3 64
2018-01-28 01:00:00 11.8 17 Norte 26 Norte 0 1032.2 0.6 65
2018-01-28 00:00:00 11.6 15 Norte 22 Norte 0 1032.1 1 66
2018-01-27 23:00:00 11.2 15 Norte 21 Norte 0 1031.9 1.3 67
2018-01-27 22:00:00 12 12 Norte 26 Nordeste 0 1031.6 2 63
2018-01-27 21:00:00 12.3 15 Nordeste 26 Nordeste 0 1031.1 2.3 59
2018-01-27 20:00:00 12.3 17 Nordeste 39 Este 0 1030.6 2.3 59
2018-01-27 19:00:00 12.8 27 Este 37 Este 0 1029.6 1.9 61
2018-01-27 18:00:00 13 23 Este 30 Este 0 1028.8 1.7 56
2018-01-27 17:00:00 12.7 14 Este 18 Nordeste 0 1028.3 1.4 56
2018-01-27 16:00:00 12.6 13 Este 21 Este 0 1027.7 0.8 62
2018-01-27 15:00:00 12.8 14 Sudeste 22 Sudeste 0 1027.1 0.3 64
2018-01-27 14:00:00 12.7 13 Este 22 Este 0 1026.9 0.8 59
2018-01-27 13:00:00 12.7 12 Norte 30 Norte 0 1026.9 1.5 55
2018-01-27 12:00:00 10.4 23 Norte 33 Norte 0 1026.8 2.4 66
2018-01-27 11:00:00 9.9 19 Norte 32 Norte 0 1026.1 2.6 72
2018-01-27 10:00:00 7.5 22 Norte 32 Norte 0 1025.4 2.8 79
2018-01-27 09:00:00 6.7 19 Norte 28 Norte 0 1024.4 2.3 84
2018-01-27 08:00:00 6.3 16 Norte 28 Norte 0 1023.5 1.6 85
2018-01-27 07:00:00 6.6 17 Norte 30 Norte 0 1022.6 0.9 88
2018-01-27 06:00:00 6.8 15 Norte 26 Norte 0 1022.1 0.7 88
2018-01-27 05:00:00 6.9 16 Norte 22 Norte 0 1021.9 0.4 90
2018-01-27 04:00:00 7.2 13 Norte 18 Norte 0 1021.7 0.5 89
2018-01-27 03:00:00 7 6 Norte 13 Norte 0 1021.4 0.5 91
2018-01-27 02:00:00 6.8 6 Norte 13 Norte 0 1021.5 1.4 92
2018-01-27 01:00:00 6.8 6 Norte 11 Norte 0 1021.2 1.7 92
2018-01-27 00:00:00 7 3 Norte 8 Noroeste 0 1020.9 1.7 91
2018-01-26 23:00:00 7.3 5 Oeste 13 Oeste 0 1020.1 1.6 91
2018-01-26 22:00:00 7.5 8 Oeste 13 Norte 0 1019.5 1.8 91
2018-01-26 21:00:00 8.2 8 Sudoeste 78 Norte 0 1019.2 2.1 87
2018-01-26 20:00:00 7.7 5 Noroeste 8 Oeste 0 1018.5 2 90
2018-01-26 19:00:00 7.6 8 Noroeste 13 Noroeste 0 1017.7 2 90
2018-01-26 18:00:00 7.3 8 Norte 13 Norte 0.5 1017.1 1.9 90
2018-01-26 17:00:00 7.3 9 Norte 15 Norte 0.9 1016.5 1.9 90
2018-01-26 16:00:00 7.5 8 Norte 13 Nordeste 4.8 1015.7 0.9 94
2018-01-26 15:00:00 7.1 6 Norte 26 Norte 5.3 1015.2 0.3 93
2018-01-26 14:00:00 7.1 18 Norte 48 Norte 2.7 1014.6 -0.9 94
2018-01-26 13:00:00 7.6 19 Norte 42 Norte 2.4 1014.8 0.4 95
2018-01-26 12:00:00 7.6 19 Norte 37 Norte 4 1014.9 2 96
2018-01-26 11:00:00 7.5 17 Norte 41 Norte 7.2 1015.5 3.7 94
2018-01-26 10:00:00 7.9 13 Norte 41 Norte 3.3 1014.4 3.1 94
2018-01-26 09:00:00 8.7 24 Norte 39 Norte 2.2 1012.9 2.1 89
2018-01-26 08:00:00 9.9 28 Norte 39 Norte 0 1011.8 1.5 86
2018-01-26 07:00:00 10 17 Norte 35 Norte 0 1011.3 0.1 86
2018-01-26 06:00:00 11.5 22 Norte 35 Sudeste 1.8 1010.8 -1.2 86
2018-01-26 05:00:00 13.7 26 Sudeste 37 Sudeste 0.4 1010.3 -2.5 89
2018-01-26 04:00:00 13.3 21 Este 26 Este 0 1011.2 -2.4 90
2018-01-26 03:00:00 12.8 18 Este 26 Este 0 1012 -2.2 91
2018-01-26 02:00:00 12.8 12 Este 15 Este 0 1012.8 -1.7 88
2018-01-26 01:00:00 13 -- -- -- -- 0 1013.6 -1.3 88
2018-01-26 00:00:00 13.4 -- -- -- -- 0 1014.2 -1.1 85
2018-01-25 23:00:00 13.6 8 Sur 13 Sudoeste 0 1014.5 -1 84
2018-01-25 22:00:00 13.4 4 Sudoeste 8 Oeste 0 1014.9 -1 82
2018-01-25 21:00:00 13.5 6 Oeste 21 Sudoeste 0 1015.3 -0.9 82
2018-01-25 20:00:00 14 9 Sur 21 Sudoeste 0 1015.5 -1.1 78
2018-01-25 19:00:00 14 12 Sudoeste 22 Sudoeste 0 1015.9 -1 77
2018-01-25 18:00:00 13.9 15 Sudoeste 24 Sudoeste 0 1016.2 -1.2 79
2018-01-25 17:00:00 14 14 Sudoeste 21 Sudoeste 0 1016.6 -1.8 80
2018-01-25 16:00:00 14 12 Sudoeste 24 Sudoeste 0 1016.9 -2.8 80
2018-01-25 15:00:00 14.2 19 Sudoeste 26 Sudoeste 0 1017.4 -3.4 77
2018-01-25 14:00:00 14.3 20 Sudoeste 35 Sudoeste 0 1018.4 -3 75
2018-01-25 13:00:00 14.2 18 Sudoeste 28 Oeste 0 1019.7 -1.7 76
2018-01-25 12:00:00 14 13 Sudoeste 18 Sudoeste 0 1020.8 -0.9 78
2018-01-25 11:00:00 12.6 3 Norte 8 Norte 0 1021.4 -0.5 77
2018-01-25 10:00:00 11.7 6 Norte 8 Norte 0 1021.4 -0.5 80
2018-01-25 09:00:00 11.1 7 Norte 9 Norte 0 1021.7 -0.4 83
2018-01-25 08:00:00 10.9 6 Norte 9 Norte 0 1021.9 -0.7 84
2018-01-25 07:00:00 10.7 9 Norte 11 Norte 0 1021.9 -1.2 86
2018-01-25 06:00:00 10.7 7 Norte 9 Norte 0 1022.1 -1.8 87
2018-01-25 05:00:00 10.6 6 Norte 11 Norte 0 1022.6 -1.7 88
2018-01-25 04:00:00 10.4 4 Norte 11 Norte 0 1023.1 -1.7 88
2018-01-25 03:00:00 10.1 8 Norte 13 Norte 0 1023.9 -1.2 89
2018-01-25 02:00:00 9.8 7 Norte 15 Norte 0 1024.3 -1 89
2018-01-25 01:00:00 10.2 11 Norte 15 Norte 0 1024.8 -0.6 87
2018-01-25 00:00:00 10.2 12 Norte 15 Norte 0 1025.1 -0.3 88
2018-01-24 23:00:00 10.5 8 Noroeste 11 Oeste 0 1025.3 -0.1 91
2018-01-24 22:00:00 11.3 6 Oeste 13 Oeste 0 1025.4 0.1 91
2018-01-24 21:00:00 11.8 10 Oeste 17 Sudoeste 0 1025.4 0.2 90
2018-01-24 20:00:00 12.8 12 Sudoeste 18 Oeste 0 1025.4 0.2 90
2018-01-24 19:00:00 13.4 15 Sudoeste 24 Oeste 0 1025.3 0.1 89
2018-01-24 18:00:00 14.2 17 Sudoeste 24 Oeste 0 1025.2 -0.3 87
2018-01-24 17:00:00 15.4 19 Sudoeste 33 Sudoeste 0 1025.2 -1 82
2018-01-24 16:00:00 15.7 16 Sudoeste 22 Sudoeste 0 1025.2 -2 78
2018-01-24 15:00:00 15.9 16 Sudoeste 21 Sudoeste 0 1025.5 -2.5 74
2018-01-24 14:00:00 15.9 17 Sudoeste 22 Sudoeste 0 1026.2 -2.1 75
2018-01-24 13:00:00 16.1 12 Sudoeste 17 Sudoeste 0 1027.2 -1.1 72
2018-01-24 12:00:00 15.2 4 Norte 17 Norte 0 1028 -0.1 64
2018-01-24 11:00:00 12.2 14 Norte 24 Norte 0 1028.3 0.5 66
2018-01-24 10:00:00 9.2 17 Norte 26 Norte 0 1028.3 0.8 75
2018-01-24 09:00:00 7.8 19 Norte 26 Norte 0 1028.1 0.9 79
2018-01-24 08:00:00 7.7 22 Norte 26 Norte 0 1027.8 0.5 80
2018-01-24 07:00:00 8.2 18 Norte 24 Norte 0 1027.5 0 80
2018-01-24 06:00:00 8.6 19 Norte 26 Norte 0 1027.2 -0.4 80
2018-01-24 05:00:00 9.1 17 Norte 24 Norte 0 1027.3 -0.5 80
2018-01-24 04:00:00 9.1 19 Norte 26 Norte 0 1027.5 -0.6 80
2018-01-24 03:00:00 9.3 15 Norte 26 Norte 0 1027.6 -0.7 80
2018-01-24 02:00:00 9.8 19 Norte 24 Norte 0 1027.8 -0.2 80
2018-01-24 01:00:00 10.2 14 Norte 24 Norte 0 1028.1 0.2 81
2018-01-24 00:00:00 11.6 18 Norte 26 Norte 0 1028.3 0.6 78
2018-01-23 23:00:00 11.9 12 Norte 17 Norte 0 1028 0.4 77
2018-01-23 22:00:00 12 8 Norte 11 Norte 0 1027.9 0.8 78
2018-01-23 21:00:00 10.9 5 Noroeste 11 Noroeste 0 1027.7 1.1 84
2018-01-23 20:00:00 11 7 Oeste 13 Oeste 0 1027.6 1.5 85
2018-01-23 19:00:00 13 4 Noroeste 15 Sudeste 0 1027.1 1.5 79
2018-01-23 18:00:00 14.6 3 Este 13 Sudeste 0 1026.6 1.6 75
2018-01-23 17:00:00 15.5 7 Sudoeste 13 Sudoeste 0 1026.1 0.8 73
2018-01-23 16:00:00 15.6 12 Sudoeste 18 Sudoeste 0 1025.6 -0.2 66
2018-01-23 15:00:00 16.6 12 Sur 18 Sudoeste 0 1025 -1.3 66
2018-01-23 14:00:00 17.9 9 Sur 13 Sur 0 1025.3 -1.1 55
2018-01-23 13:00:00 17 7 Norte 17 Norte 0 1025.8 0 54
2018-01-23 12:00:00 15.8 14 Norte 26 Norte 0 1026.3 0.8 59
2018-01-23 11:00:00 13.6 19 Norte 28 Norte 0 1026.4 1.4 66
2018-01-23 10:00:00 11.7 19 Norte 26 Norte 0 1025.8 1.1 74
2018-01-23 09:00:00 10 17 Norte 26 Norte 0 1025.5 1.7 80
2018-01-23 08:00:00 9.7 18 Norte 24 Norte 0 1025 0.9 81
2018-01-23 07:00:00 10.1 19 Norte 24 Norte 0 1024.7 0.7 80
2018-01-23 06:00:00 10.5 18 Norte 26 Norte 0 1023.8 -0.1 79
2018-01-23 05:00:00 11.3 12 Norte 22 Norte 0 1024.1 1 76
2018-01-23 04:00:00 12.1 14 Norte 22 Norte 0 1024 0.9 74
2018-01-23 03:00:00 11.7 12 Norte 17 Norte 0 1023.9 0.3 75
2018-01-23 02:00:00 12.3 12 Noroeste 18 Noroeste 0 1023.1 -0.3 74
2018-01-23 01:00:00 11.6 10 Norte 21 Norte 0 1023.1 0.4 77
2018-01-23 00:00:00 12.6 16 Norte 22 Norte 0 1023.6 1.6 73
2018-01-22 23:00:00 13.8 12 Nordeste 21 Nordeste 0 1023.4 1.8 83
2018-01-22 22:00:00 13.4 12 Este 18 Este 0 1022.7 1.9 75
2018-01-22 21:00:00 13.9 10 Este 21 Este 0 1022 1.4 71
2018-01-22 20:00:00 16.4 6 Norte 24 Norte 0 1021.6 1 53
2018-01-22 19:00:00 17.4 11 Norte 30 Norte 0 1020.8 0.8 51
2018-01-22 18:00:00 18.5 19 Norte 26 Norte 0 1020.6 0.5 47
2018-01-22 17:00:00 19.3 21 Norte 33 Norte 0 1020.6 0.5 44
2018-01-22 16:00:00 21.1 17 Norte 26 Noroeste 0 1020 -0.8 40
2018-01-22 15:00:00 18.7 13 Sur 22 Sudoeste 0 1020.1 -1.6 56
2018-01-22 14:00:00 18.5 12 Sur 18 Sur 0 1020.1 -1.9 54
2018-01-22 13:00:00 18 10 Sur 18 Sur 0 1020.8 -1.1 53
2018-01-22 12:00:00 17.9 12 Sur 18 Norte 0 1021.7 0.1 51
2018-01-22 11:00:00 16.3 17 Norte 26 Norte 0 1022 1.6 59
2018-01-22 10:00:00 14.1 19 Norte 26 Norte 0 1021.9 1 66
2018-01-22 09:00:00 12.9 20 Norte 37 Norte 0 1021.6 0.7 71
2018-01-22 08:00:00 13.5 32 Norte 42 Norte 0 1020.4 -0.2 68
2018-01-22 07:00:00 14.2 17 Norte 24 Norte 0 1020.9 0.5 66
2018-01-22 06:00:00 13.7 9 Norte 17 Norte 0 1020.9 0.6 66
2018-01-22 05:00:00 14.1 10 Norte 24 Norte 0 1020.6 0.9 66
2018-01-22 04:00:00 14.9 15 Norte 32 Norte 0 1020.4 0 62
2018-01-22 03:00:00 15.4 15 Norte 45 Norte 0 1020.3 -0.3 59
2018-01-22 02:00:00 15.7 29 Norte 41 Norte 0 1019.7 -0.5 58
2018-01-22 01:00:00 15.4 6 Nordeste 35 Norte 0 1020.4 0.2 60
2018-01-22 00:00:00 15.7 19 Norte 30 Norte 0 1020.6 0.4 60